<?xml version="1.0" encoding="UTF-8" standalone="no" ?>
<gpx xmlns="http://www.topografix.com/GPX/1/1" xmlns:xsi="http://www.w3.org/2001/XMLSchema-instance" xsi:schemaLocation="http://www.topografix.com/GPX/1/1 http://www.topografix.com/GPX/1/1/gpx.xsd" version="1.1" creator="VisuGPX - https://www.visugpx.com">
  <metadata>
    <name>Combovin tour Barcelonne chapelle Sainte Marguerite</name>
    <desc><![CDATA[File with points/tracks from Locus Map/3.37.1]]></desc>
  </metadata>
  <trk>
    <name><![CDATA[F26120 Combovin tour Barcelonne chapelle Sainte Marguerite RGEO AM]]></name>
    <trkseg>
      <trkpt lat="44.87124" lon="5.0773">
        <ele>366.01</ele>
        <time>2019-03-21T13:06:24.000Z</time>
      </trkpt>
      <trkpt lat="44.87134" lon="5.07725">
        <ele>365.23</ele>
        <time>2019-03-21T13:06:38.000Z</time>
      </trkpt>
      <trkpt lat="44.87145" lon="5.07719">
        <ele>364.27</ele>
        <time>2019-03-21T13:06:48.000Z</time>
      </trkpt>
      <trkpt lat="44.87155" lon="5.07718">
        <ele>363.92</ele>
        <time>2019-03-21T13:07:02.000Z</time>
      </trkpt>
      <trkpt lat="44.87167" lon="5.07716">
        <ele>363.34</ele>
        <time>2019-03-21T13:07:12.000Z</time>
      </trkpt>
      <trkpt lat="44.87178" lon="5.07717">
        <ele>363.25</ele>
        <time>2019-03-21T13:07:22.000Z</time>
      </trkpt>
      <trkpt lat="44.87169" lon="5.0771">
        <ele>362.64</ele>
        <time>2019-03-21T13:07:50.000Z</time>
      </trkpt>
      <trkpt lat="44.87159" lon="5.07708">
        <ele>362.62</ele>
        <time>2019-03-21T13:08:00.000Z</time>
      </trkpt>
      <trkpt lat="44.87148" lon="5.07704">
        <ele>362.62</ele>
        <time>2019-03-21T13:08:10.000Z</time>
      </trkpt>
      <trkpt lat="44.87139" lon="5.07697">
        <ele>362.42</ele>
        <time>2019-03-21T13:08:20.000Z</time>
      </trkpt>
      <trkpt lat="44.87129" lon="5.07695">
        <ele>362.84</ele>
        <time>2019-03-21T13:08:30.000Z</time>
      </trkpt>
      <trkpt lat="44.87123" lon="5.07685">
        <ele>362.78</ele>
        <time>2019-03-21T13:08:41.000Z</time>
      </trkpt>
      <trkpt lat="44.87121" lon="5.07673">
        <ele>362.83</ele>
        <time>2019-03-21T13:08:52.000Z</time>
      </trkpt>
      <trkpt lat="44.87121" lon="5.07658">
        <ele>363.61</ele>
        <time>2019-03-21T13:09:02.000Z</time>
      </trkpt>
      <trkpt lat="44.87124" lon="5.07646">
        <ele>364.54</ele>
        <time>2019-03-21T13:09:17.000Z</time>
      </trkpt>
      <trkpt lat="44.87123" lon="5.07633">
        <ele>366.32</ele>
        <time>2019-03-21T13:09:32.000Z</time>
      </trkpt>
      <trkpt lat="44.87121" lon="5.0762">
        <ele>368.54</ele>
        <time>2019-03-21T13:09:43.000Z</time>
      </trkpt>
      <trkpt lat="44.87116" lon="5.07608">
        <ele>371.14</ele>
        <time>2019-03-21T13:09:53.000Z</time>
      </trkpt>
      <trkpt lat="44.87108" lon="5.076">
        <ele>373.19</ele>
        <time>2019-03-21T13:10:06.000Z</time>
      </trkpt>
      <trkpt lat="44.87099" lon="5.07599">
        <ele>374.15</ele>
        <time>2019-03-21T13:10:20.000Z</time>
      </trkpt>
      <trkpt lat="44.87089" lon="5.07599">
        <ele>374.89</ele>
        <time>2019-03-21T13:10:42.000Z</time>
      </trkpt>
      <trkpt lat="44.87079" lon="5.07598">
        <ele>375.66</ele>
        <time>2019-03-21T13:11:03.000Z</time>
      </trkpt>
      <trkpt lat="44.8707" lon="5.07597">
        <ele>376.22</ele>
        <time>2019-03-21T13:12:00.000Z</time>
      </trkpt>
      <trkpt lat="44.87061" lon="5.07595">
        <ele>376.94</ele>
        <time>2019-03-21T13:12:13.000Z</time>
      </trkpt>
      <trkpt lat="44.87051" lon="5.07594">
        <ele>377.36</ele>
        <time>2019-03-21T13:12:23.000Z</time>
      </trkpt>
      <trkpt lat="44.87042" lon="5.07592">
        <ele>377.76</ele>
        <time>2019-03-21T13:12:34.000Z</time>
      </trkpt>
      <trkpt lat="44.87032" lon="5.07592">
        <ele>377.89</ele>
        <time>2019-03-21T13:12:45.000Z</time>
      </trkpt>
      <trkpt lat="44.87023" lon="5.07588">
        <ele>378.38</ele>
        <time>2019-03-21T13:12:56.000Z</time>
      </trkpt>
      <trkpt lat="44.87011" lon="5.07587">
        <ele>378.59</ele>
        <time>2019-03-21T13:13:06.000Z</time>
      </trkpt>
      <trkpt lat="44.87002" lon="5.07582">
        <ele>379.15</ele>
        <time>2019-03-21T13:13:16.000Z</time>
      </trkpt>
      <trkpt lat="44.86993" lon="5.0758">
        <ele>379.45</ele>
        <time>2019-03-21T13:13:27.000Z</time>
      </trkpt>
      <trkpt lat="44.86984" lon="5.07575">
        <ele>379.92</ele>
        <time>2019-03-21T13:13:39.000Z</time>
      </trkpt>
      <trkpt lat="44.86978" lon="5.07566">
        <ele>381.08</ele>
        <time>2019-03-21T13:13:50.000Z</time>
      </trkpt>
      <trkpt lat="44.86972" lon="5.07556">
        <ele>382.36</ele>
        <time>2019-03-21T13:14:02.000Z</time>
      </trkpt>
      <trkpt lat="44.86967" lon="5.07545">
        <ele>383.89</ele>
        <time>2019-03-21T13:14:26.000Z</time>
      </trkpt>
      <trkpt lat="44.86963" lon="5.07533">
        <ele>385.75</ele>
        <time>2019-03-21T13:14:40.000Z</time>
      </trkpt>
      <trkpt lat="44.86961" lon="5.07519">
        <ele>387.87</ele>
        <time>2019-03-21T13:14:54.000Z</time>
      </trkpt>
      <trkpt lat="44.86959" lon="5.07506">
        <ele>389.79</ele>
        <time>2019-03-21T13:15:17.000Z</time>
      </trkpt>
      <trkpt lat="44.8696" lon="5.07494">
        <ele>391.87</ele>
        <time>2019-03-21T13:15:33.000Z</time>
      </trkpt>
      <trkpt lat="44.8696" lon="5.0748">
        <ele>393.95</ele>
        <time>2019-03-21T13:15:49.000Z</time>
      </trkpt>
      <trkpt lat="44.86959" lon="5.07467">
        <ele>395.86</ele>
        <time>2019-03-21T13:16:06.000Z</time>
      </trkpt>
      <trkpt lat="44.86957" lon="5.07453">
        <ele>397.62</ele>
        <time>2019-03-21T13:19:59.000Z</time>
      </trkpt>
      <trkpt lat="44.86958" lon="5.0744">
        <ele>399.74</ele>
        <time>2019-03-21T13:20:14.000Z</time>
      </trkpt>
      <trkpt lat="44.86956" lon="5.07427">
        <ele>401.25</ele>
        <time>2019-03-21T13:20:28.000Z</time>
      </trkpt>
      <trkpt lat="44.86954" lon="5.07413">
        <ele>402.63</ele>
        <time>2019-03-21T13:20:50.000Z</time>
      </trkpt>
      <trkpt lat="44.86952" lon="5.07401">
        <ele>404.1</ele>
        <time>2019-03-21T13:21:07.000Z</time>
      </trkpt>
      <trkpt lat="44.86951" lon="5.07387">
        <ele>405.74</ele>
        <time>2019-03-21T13:21:21.000Z</time>
      </trkpt>
      <trkpt lat="44.86952" lon="5.07374">
        <ele>407.47</ele>
        <time>2019-03-21T13:21:35.000Z</time>
      </trkpt>
      <trkpt lat="44.8695" lon="5.07361">
        <ele>408.95</ele>
        <time>2019-03-21T13:21:51.000Z</time>
      </trkpt>
      <trkpt lat="44.86949" lon="5.07348">
        <ele>410.32</ele>
        <time>2019-03-21T13:22:07.000Z</time>
      </trkpt>
      <trkpt lat="44.86947" lon="5.07335">
        <ele>411.64</ele>
        <time>2019-03-21T13:22:22.000Z</time>
      </trkpt>
      <trkpt lat="44.86942" lon="5.07324">
        <ele>412.57</ele>
        <time>2019-03-21T13:22:48.000Z</time>
      </trkpt>
      <trkpt lat="44.86941" lon="5.07311">
        <ele>413.4</ele>
        <time>2019-03-21T13:23:08.000Z</time>
      </trkpt>
      <trkpt lat="44.86937" lon="5.07299">
        <ele>414.14</ele>
        <time>2019-03-21T13:23:22.000Z</time>
      </trkpt>
      <trkpt lat="44.86929" lon="5.07292">
        <ele>414.94</ele>
        <time>2019-03-21T13:23:43.000Z</time>
      </trkpt>
      <trkpt lat="44.86919" lon="5.07289">
        <ele>415.74</ele>
        <time>2019-03-21T13:23:56.000Z</time>
      </trkpt>
      <trkpt lat="44.86909" lon="5.07287">
        <ele>416.51</ele>
        <time>2019-03-21T13:24:10.000Z</time>
      </trkpt>
      <trkpt lat="44.869" lon="5.07283">
        <ele>417.42</ele>
        <time>2019-03-21T13:24:22.000Z</time>
      </trkpt>
      <trkpt lat="44.86894" lon="5.07273">
        <ele>418.92</ele>
        <time>2019-03-21T13:24:37.000Z</time>
      </trkpt>
      <trkpt lat="44.86886" lon="5.07264">
        <ele>420.68</ele>
        <time>2019-03-21T13:24:51.000Z</time>
      </trkpt>
      <trkpt lat="44.86879" lon="5.07254">
        <ele>422.6</ele>
        <time>2019-03-21T13:25:09.000Z</time>
      </trkpt>
      <trkpt lat="44.86873" lon="5.07245">
        <ele>424.33</ele>
        <time>2019-03-21T13:25:24.000Z</time>
      </trkpt>
      <trkpt lat="44.86864" lon="5.07238">
        <ele>425.76</ele>
        <time>2019-03-21T13:25:37.000Z</time>
      </trkpt>
      <trkpt lat="44.86856" lon="5.07231">
        <ele>426.9</ele>
        <time>2019-03-21T13:25:49.000Z</time>
      </trkpt>
      <trkpt lat="44.86849" lon="5.07223">
        <ele>427.77</ele>
        <time>2019-03-21T13:26:07.000Z</time>
      </trkpt>
      <trkpt lat="44.86842" lon="5.07215">
        <ele>428.39</ele>
        <time>2019-03-21T13:26:18.000Z</time>
      </trkpt>
      <trkpt lat="44.86833" lon="5.07208">
        <ele>428.99</ele>
        <time>2019-03-21T13:26:30.000Z</time>
      </trkpt>
      <trkpt lat="44.86828" lon="5.07198">
        <ele>429.51</ele>
        <time>2019-03-21T13:26:41.000Z</time>
      </trkpt>
      <trkpt lat="44.86824" lon="5.07186">
        <ele>430.17</ele>
        <time>2019-03-21T13:26:53.000Z</time>
      </trkpt>
      <trkpt lat="44.86822" lon="5.07174">
        <ele>430.89</ele>
        <time>2019-03-21T13:27:05.000Z</time>
      </trkpt>
      <trkpt lat="44.86819" lon="5.07162">
        <ele>432.26</ele>
        <time>2019-03-21T13:28:27.000Z</time>
      </trkpt>
      <trkpt lat="44.86815" lon="5.0715">
        <ele>434.03</ele>
        <time>2019-03-21T13:28:46.000Z</time>
      </trkpt>
      <trkpt lat="44.86808" lon="5.07142">
        <ele>436.27</ele>
        <time>2019-03-21T13:29:17.000Z</time>
      </trkpt>
      <trkpt lat="44.86801" lon="5.07132">
        <ele>438.82</ele>
        <time>2019-03-21T13:29:36.000Z</time>
      </trkpt>
      <trkpt lat="44.86792" lon="5.07125">
        <ele>441.04</ele>
        <time>2019-03-21T13:29:51.000Z</time>
      </trkpt>
      <trkpt lat="44.86787" lon="5.07115">
        <ele>442.8</ele>
        <time>2019-03-21T13:30:07.000Z</time>
      </trkpt>
      <trkpt lat="44.86783" lon="5.07104">
        <ele>444.12</ele>
        <time>2019-03-21T13:30:24.000Z</time>
      </trkpt>
      <trkpt lat="44.86777" lon="5.07093">
        <ele>445.21</ele>
        <time>2019-03-21T13:30:38.000Z</time>
      </trkpt>
      <trkpt lat="44.86769" lon="5.07086">
        <ele>446.21</ele>
        <time>2019-03-21T13:30:51.000Z</time>
      </trkpt>
      <trkpt lat="44.86762" lon="5.07078">
        <ele>446.92</ele>
        <time>2019-03-21T13:31:03.000Z</time>
      </trkpt>
      <trkpt lat="44.86756" lon="5.07068">
        <ele>447.19</ele>
        <time>2019-03-21T13:31:17.000Z</time>
      </trkpt>
      <trkpt lat="44.8675" lon="5.07058">
        <ele>447.42</ele>
        <time>2019-03-21T13:31:29.000Z</time>
      </trkpt>
      <trkpt lat="44.86745" lon="5.07048">
        <ele>447.58</ele>
        <time>2019-03-21T13:31:40.000Z</time>
      </trkpt>
      <trkpt lat="44.86739" lon="5.07037">
        <ele>447.91</ele>
        <time>2019-03-21T13:31:54.000Z</time>
      </trkpt>
      <trkpt lat="44.86732" lon="5.07026">
        <ele>448.92</ele>
        <time>2019-03-21T13:32:09.000Z</time>
      </trkpt>
      <trkpt lat="44.86725" lon="5.07017">
        <ele>450.53</ele>
        <time>2019-03-21T13:32:21.000Z</time>
      </trkpt>
      <trkpt lat="44.86718" lon="5.07007">
        <ele>452.17</ele>
        <time>2019-03-21T13:32:34.000Z</time>
      </trkpt>
      <trkpt lat="44.86713" lon="5.06995">
        <ele>453.56</ele>
        <time>2019-03-21T13:32:48.000Z</time>
      </trkpt>
      <trkpt lat="44.86706" lon="5.06987">
        <ele>455.43</ele>
        <time>2019-03-21T13:32:59.000Z</time>
      </trkpt>
      <trkpt lat="44.86698" lon="5.0698">
        <ele>457.14</ele>
        <time>2019-03-21T13:33:13.000Z</time>
      </trkpt>
      <trkpt lat="44.86693" lon="5.06969">
        <ele>457.88</ele>
        <time>2019-03-21T13:33:23.000Z</time>
      </trkpt>
      <trkpt lat="44.86689" lon="5.06957">
        <ele>458.14</ele>
        <time>2019-03-21T13:33:41.000Z</time>
      </trkpt>
      <trkpt lat="44.86684" lon="5.06945">
        <ele>458.56</ele>
        <time>2019-03-21T13:33:53.000Z</time>
      </trkpt>
      <trkpt lat="44.86679" lon="5.06934">
        <ele>458.92</ele>
        <time>2019-03-21T13:34:03.000Z</time>
      </trkpt>
      <trkpt lat="44.86678" lon="5.0692">
        <ele>458.98</ele>
        <time>2019-03-21T13:34:21.000Z</time>
      </trkpt>
      <trkpt lat="44.86673" lon="5.06908">
        <ele>459.68</ele>
        <time>2019-03-21T13:34:34.000Z</time>
      </trkpt>
      <trkpt lat="44.86669" lon="5.06894">
        <ele>460.3</ele>
        <time>2019-03-21T13:34:49.000Z</time>
      </trkpt>
      <trkpt lat="44.8667" lon="5.0688">
        <ele>460.7</ele>
        <time>2019-03-21T13:35:02.000Z</time>
      </trkpt>
      <trkpt lat="44.86666" lon="5.06866">
        <ele>461.49</ele>
        <time>2019-03-21T13:35:21.000Z</time>
      </trkpt>
      <trkpt lat="44.86664" lon="5.06852">
        <ele>462.18</ele>
        <time>2019-03-21T13:35:35.000Z</time>
      </trkpt>
      <trkpt lat="44.86662" lon="5.06839">
        <ele>462.98</ele>
        <time>2019-03-21T13:35:48.000Z</time>
      </trkpt>
      <trkpt lat="44.8666" lon="5.06827">
        <ele>463.89</ele>
        <time>2019-03-21T13:36:02.000Z</time>
      </trkpt>
      <trkpt lat="44.86659" lon="5.06813">
        <ele>465.07</ele>
        <time>2019-03-21T13:36:16.000Z</time>
      </trkpt>
      <trkpt lat="44.86656" lon="5.06801">
        <ele>466.47</ele>
        <time>2019-03-21T13:36:29.000Z</time>
      </trkpt>
      <trkpt lat="44.86652" lon="5.06789">
        <ele>467.82</ele>
        <time>2019-03-21T13:36:43.000Z</time>
      </trkpt>
      <trkpt lat="44.8665" lon="5.06776">
        <ele>468.91</ele>
        <time>2019-03-21T13:36:57.000Z</time>
      </trkpt>
      <trkpt lat="44.86653" lon="5.06764">
        <ele>469.53</ele>
        <time>2019-03-21T13:37:10.000Z</time>
      </trkpt>
      <trkpt lat="44.86659" lon="5.06754">
        <ele>469.86</ele>
        <time>2019-03-21T13:37:24.000Z</time>
      </trkpt>
      <trkpt lat="44.86667" lon="5.06747">
        <ele>470.07</ele>
        <time>2019-03-21T13:37:38.000Z</time>
      </trkpt>
      <trkpt lat="44.86675" lon="5.0674">
        <ele>470.36</ele>
        <time>2019-03-21T13:37:50.000Z</time>
      </trkpt>
      <trkpt lat="44.86683" lon="5.06733">
        <ele>470.78</ele>
        <time>2019-03-21T13:38:03.000Z</time>
      </trkpt>
      <trkpt lat="44.8669" lon="5.06725">
        <ele>471.34</ele>
        <time>2019-03-21T13:38:14.000Z</time>
      </trkpt>
      <trkpt lat="44.86694" lon="5.06712">
        <ele>471.88</ele>
        <time>2019-03-21T13:38:28.000Z</time>
      </trkpt>
      <trkpt lat="44.867" lon="5.06703">
        <ele>472.72</ele>
        <time>2019-03-21T13:39:10.000Z</time>
      </trkpt>
      <trkpt lat="44.86706" lon="5.06693">
        <ele>473.64</ele>
        <time>2019-03-21T13:39:21.000Z</time>
      </trkpt>
      <trkpt lat="44.86708" lon="5.0668">
        <ele>474.08</ele>
        <time>2019-03-21T13:39:35.000Z</time>
      </trkpt>
      <trkpt lat="44.86711" lon="5.06668">
        <ele>474.35</ele>
        <time>2019-03-21T13:39:45.000Z</time>
      </trkpt>
      <trkpt lat="44.86714" lon="5.06654">
        <ele>474.25</ele>
        <time>2019-03-21T13:39:56.000Z</time>
      </trkpt>
      <trkpt lat="44.86715" lon="5.06641">
        <ele>473.69</ele>
        <time>2019-03-21T13:40:06.000Z</time>
      </trkpt>
      <trkpt lat="44.86719" lon="5.06629">
        <ele>473.11</ele>
        <time>2019-03-21T13:40:17.000Z</time>
      </trkpt>
      <trkpt lat="44.86719" lon="5.06615">
        <ele>471.62</ele>
        <time>2019-03-21T13:40:32.000Z</time>
      </trkpt>
      <trkpt lat="44.86722" lon="5.06603">
        <ele>470.45</ele>
        <time>2019-03-21T13:40:42.000Z</time>
      </trkpt>
      <trkpt lat="44.86723" lon="5.0659">
        <ele>468.97</ele>
        <time>2019-03-21T13:40:57.000Z</time>
      </trkpt>
      <trkpt lat="44.86728" lon="5.06579">
        <ele>468.05</ele>
        <time>2019-03-21T13:41:10.000Z</time>
      </trkpt>
      <trkpt lat="44.86731" lon="5.06567">
        <ele>466.62</ele>
        <time>2019-03-21T13:41:29.000Z</time>
      </trkpt>
      <trkpt lat="44.86737" lon="5.06556">
        <ele>465.35</ele>
        <time>2019-03-21T13:41:44.000Z</time>
      </trkpt>
      <trkpt lat="44.86741" lon="5.06543">
        <ele>463.5</ele>
        <time>2019-03-21T13:42:04.000Z</time>
      </trkpt>
      <trkpt lat="44.86742" lon="5.0653">
        <ele>461.8</ele>
        <time>2019-03-21T13:42:46.000Z</time>
      </trkpt>
      <trkpt lat="44.86746" lon="5.06518">
        <ele>460.15</ele>
        <time>2019-03-21T13:43:20.000Z</time>
      </trkpt>
      <trkpt lat="44.86747" lon="5.06504">
        <ele>458.58</ele>
        <time>2019-03-21T13:43:41.000Z</time>
      </trkpt>
      <trkpt lat="44.8675" lon="5.06492">
        <ele>457.18</ele>
        <time>2019-03-21T13:43:57.000Z</time>
      </trkpt>
      <trkpt lat="44.86752" lon="5.06478">
        <ele>455.94</ele>
        <time>2019-03-21T13:44:12.000Z</time>
      </trkpt>
      <trkpt lat="44.86754" lon="5.06465">
        <ele>454.8</ele>
        <time>2019-03-21T13:44:31.000Z</time>
      </trkpt>
      <trkpt lat="44.86757" lon="5.06452">
        <ele>453.59</ele>
        <time>2019-03-21T13:44:45.000Z</time>
      </trkpt>
      <trkpt lat="44.86759" lon="5.06439">
        <ele>452.35</ele>
        <time>2019-03-21T13:44:59.000Z</time>
      </trkpt>
      <trkpt lat="44.86765" lon="5.06428">
        <ele>450.6</ele>
        <time>2019-03-21T13:45:15.000Z</time>
      </trkpt>
      <trkpt lat="44.86768" lon="5.06416">
        <ele>449.05</ele>
        <time>2019-03-21T13:45:25.000Z</time>
      </trkpt>
      <trkpt lat="44.86771" lon="5.06404">
        <ele>447.39</ele>
        <time>2019-03-21T13:45:36.000Z</time>
      </trkpt>
      <trkpt lat="44.86772" lon="5.06389">
        <ele>446.17</ele>
        <time>2019-03-21T13:46:08.000Z</time>
      </trkpt>
      <trkpt lat="44.86777" lon="5.06377">
        <ele>444.77</ele>
        <time>2019-03-21T13:46:21.000Z</time>
      </trkpt>
      <trkpt lat="44.8678" lon="5.06364">
        <ele>443.93</ele>
        <time>2019-03-21T13:46:33.000Z</time>
      </trkpt>
      <trkpt lat="44.86787" lon="5.06353">
        <ele>443.56</ele>
        <time>2019-03-21T13:46:48.000Z</time>
      </trkpt>
      <trkpt lat="44.86794" lon="5.06342">
        <ele>443.82</ele>
        <time>2019-03-21T13:46:58.000Z</time>
      </trkpt>
      <trkpt lat="44.868" lon="5.06332">
        <ele>444.49</ele>
        <time>2019-03-21T13:47:09.000Z</time>
      </trkpt>
      <trkpt lat="44.86806" lon="5.06321">
        <ele>445.51</ele>
        <time>2019-03-21T13:47:22.000Z</time>
      </trkpt>
      <trkpt lat="44.8681" lon="5.06307">
        <ele>446.88</ele>
        <time>2019-03-21T13:47:36.000Z</time>
      </trkpt>
      <trkpt lat="44.86815" lon="5.06296">
        <ele>448.49</ele>
        <time>2019-03-21T13:47:48.000Z</time>
      </trkpt>
      <trkpt lat="44.86819" lon="5.06284">
        <ele>450.15</ele>
        <time>2019-03-21T13:48:00.000Z</time>
      </trkpt>
      <trkpt lat="44.86821" lon="5.06271">
        <ele>451.7</ele>
        <time>2019-03-21T13:48:13.000Z</time>
      </trkpt>
      <trkpt lat="44.86824" lon="5.06258">
        <ele>453.51</ele>
        <time>2019-03-21T13:48:29.000Z</time>
      </trkpt>
      <trkpt lat="44.86825" lon="5.06245">
        <ele>455.12</ele>
        <time>2019-03-21T13:48:45.000Z</time>
      </trkpt>
      <trkpt lat="44.86826" lon="5.06232">
        <ele>456.73</ele>
        <time>2019-03-21T13:49:04.000Z</time>
      </trkpt>
      <trkpt lat="44.86829" lon="5.06219">
        <ele>458.56</ele>
        <time>2019-03-21T13:49:19.000Z</time>
      </trkpt>
      <trkpt lat="44.86834" lon="5.06208">
        <ele>460.19</ele>
        <time>2019-03-21T13:49:41.000Z</time>
      </trkpt>
      <trkpt lat="44.86836" lon="5.06195">
        <ele>461.68</ele>
        <time>2019-03-21T13:50:04.000Z</time>
      </trkpt>
      <trkpt lat="44.86837" lon="5.06182">
        <ele>463.08</ele>
        <time>2019-03-21T13:50:20.000Z</time>
      </trkpt>
      <trkpt lat="44.86841" lon="5.06168">
        <ele>464.24</ele>
        <time>2019-03-21T13:50:34.000Z</time>
      </trkpt>
      <trkpt lat="44.86846" lon="5.06156">
        <ele>464.77</ele>
        <time>2019-03-21T13:50:56.000Z</time>
      </trkpt>
      <trkpt lat="44.86854" lon="5.06148">
        <ele>464.1</ele>
        <time>2019-03-21T13:51:09.000Z</time>
      </trkpt>
      <trkpt lat="44.86857" lon="5.06136">
        <ele>463.52</ele>
        <time>2019-03-21T13:51:46.000Z</time>
      </trkpt>
      <trkpt lat="44.86859" lon="5.06122">
        <ele>462.57</ele>
        <time>2019-03-21T13:52:03.000Z</time>
      </trkpt>
      <trkpt lat="44.86855" lon="5.0611">
        <ele>463.43</ele>
        <time>2019-03-21T13:53:48.000Z</time>
      </trkpt>
      <trkpt lat="44.86858" lon="5.06098">
        <ele>461.16</ele>
        <time>2019-03-21T13:53:59.000Z</time>
      </trkpt>
      <trkpt lat="44.86861" lon="5.06086">
        <ele>458.39</ele>
        <time>2019-03-21T13:54:16.000Z</time>
      </trkpt>
      <trkpt lat="44.86857" lon="5.06074">
        <ele>458.53</ele>
        <time>2019-03-21T13:54:38.000Z</time>
      </trkpt>
      <trkpt lat="44.86859" lon="5.06087">
        <ele>459.77</ele>
        <time>2019-03-21T14:08:39.000Z</time>
      </trkpt>
      <trkpt lat="44.86866" lon="5.06095">
        <ele>456.93</ele>
        <time>2019-03-21T14:08:49.000Z</time>
      </trkpt>
      <trkpt lat="44.86872" lon="5.06108">
        <ele>454.94</ele>
        <time>2019-03-21T14:08:59.000Z</time>
      </trkpt>
      <trkpt lat="44.86865" lon="5.0612">
        <ele>459.88</ele>
        <time>2019-03-21T14:09:09.000Z</time>
      </trkpt>
      <trkpt lat="44.8686" lon="5.06108">
        <ele>461.13</ele>
        <time>2019-03-21T14:11:39.000Z</time>
      </trkpt>
      <trkpt lat="44.86858" lon="5.06122">
        <ele>462.94</ele>
        <time>2019-03-21T14:12:02.000Z</time>
      </trkpt>
      <trkpt lat="44.86857" lon="5.06135">
        <ele>463.5</ele>
        <time>2019-03-21T14:12:15.000Z</time>
      </trkpt>
      <trkpt lat="44.86864" lon="5.06143">
        <ele>461.52</ele>
        <time>2019-03-21T14:12:57.000Z</time>
      </trkpt>
      <trkpt lat="44.86873" lon="5.06138">
        <ele>457.95</ele>
        <time>2019-03-21T14:13:07.000Z</time>
      </trkpt>
      <trkpt lat="44.86882" lon="5.06129">
        <ele>452.4</ele>
        <time>2019-03-21T14:13:17.000Z</time>
      </trkpt>
      <trkpt lat="44.86876" lon="5.0614">
        <ele>456.67</ele>
        <time>2019-03-21T14:13:34.000Z</time>
      </trkpt>
      <trkpt lat="44.86867" lon="5.06143">
        <ele>460.56</ele>
        <time>2019-03-21T14:13:44.000Z</time>
      </trkpt>
      <trkpt lat="44.86858" lon="5.06148">
        <ele>463.21</ele>
        <time>2019-03-21T14:13:58.000Z</time>
      </trkpt>
      <trkpt lat="44.8685" lon="5.06155">
        <ele>464.4</ele>
        <time>2019-03-21T14:14:54.000Z</time>
      </trkpt>
      <trkpt lat="44.86842" lon="5.06162">
        <ele>464.62</ele>
        <time>2019-03-21T14:16:55.000Z</time>
      </trkpt>
      <trkpt lat="44.86838" lon="5.06174">
        <ele>463.79</ele>
        <time>2019-03-21T14:17:05.000Z</time>
      </trkpt>
      <trkpt lat="44.86835" lon="5.06188">
        <ele>462.43</ele>
        <time>2019-03-21T14:17:15.000Z</time>
      </trkpt>
      <trkpt lat="44.86833" lon="5.06201">
        <ele>460.92</ele>
        <time>2019-03-21T14:17:32.000Z</time>
      </trkpt>
      <trkpt lat="44.86831" lon="5.06214">
        <ele>459.25</ele>
        <time>2019-03-21T14:17:44.000Z</time>
      </trkpt>
      <trkpt lat="44.86827" lon="5.06226">
        <ele>457.43</ele>
        <time>2019-03-21T14:17:56.000Z</time>
      </trkpt>
      <trkpt lat="44.86826" lon="5.06239">
        <ele>455.91</ele>
        <time>2019-03-21T14:18:07.000Z</time>
      </trkpt>
      <trkpt lat="44.86824" lon="5.06252">
        <ele>454.27</ele>
        <time>2019-03-21T14:18:33.000Z</time>
      </trkpt>
      <trkpt lat="44.86823" lon="5.06266">
        <ele>452.48</ele>
        <time>2019-03-21T14:18:52.000Z</time>
      </trkpt>
      <trkpt lat="44.8682" lon="5.06279">
        <ele>450.75</ele>
        <time>2019-03-21T14:19:14.000Z</time>
      </trkpt>
      <trkpt lat="44.86816" lon="5.06291">
        <ele>449.06</ele>
        <time>2019-03-21T14:19:27.000Z</time>
      </trkpt>
      <trkpt lat="44.8681" lon="5.06302">
        <ele>447.37</ele>
        <time>2019-03-21T14:19:43.000Z</time>
      </trkpt>
      <trkpt lat="44.86808" lon="5.06315">
        <ele>446.05</ele>
        <time>2019-03-21T14:19:56.000Z</time>
      </trkpt>
      <trkpt lat="44.86802" lon="5.06328">
        <ele>444.81</ele>
        <time>2019-03-21T14:20:10.000Z</time>
      </trkpt>
      <trkpt lat="44.86796" lon="5.0634">
        <ele>443.95</ele>
        <time>2019-03-21T14:20:20.000Z</time>
      </trkpt>
      <trkpt lat="44.86788" lon="5.06352">
        <ele>443.56</ele>
        <time>2019-03-21T14:20:33.000Z</time>
      </trkpt>
      <trkpt lat="44.86783" lon="5.06362">
        <ele>443.76</ele>
        <time>2019-03-21T14:22:03.000Z</time>
      </trkpt>
      <trkpt lat="44.86778" lon="5.06374">
        <ele>444.47</ele>
        <time>2019-03-21T14:22:15.000Z</time>
      </trkpt>
      <trkpt lat="44.86772" lon="5.06385">
        <ele>445.79</ele>
        <time>2019-03-21T14:22:28.000Z</time>
      </trkpt>
      <trkpt lat="44.8677" lon="5.06399">
        <ele>447.14</ele>
        <time>2019-03-21T14:22:45.000Z</time>
      </trkpt>
      <trkpt lat="44.86767" lon="5.06411">
        <ele>448.78</ele>
        <time>2019-03-21T14:23:05.000Z</time>
      </trkpt>
      <trkpt lat="44.86761" lon="5.06421">
        <ele>450.54</ele>
        <time>2019-03-21T14:23:18.000Z</time>
      </trkpt>
      <trkpt lat="44.86761" lon="5.06434">
        <ele>451.75</ele>
        <time>2019-03-21T14:24:05.000Z</time>
      </trkpt>
      <trkpt lat="44.86759" lon="5.06447">
        <ele>453.04</ele>
        <time>2019-03-21T14:24:17.000Z</time>
      </trkpt>
      <trkpt lat="44.86756" lon="5.06461">
        <ele>454.3</ele>
        <time>2019-03-21T14:24:31.000Z</time>
      </trkpt>
      <trkpt lat="44.86755" lon="5.06473">
        <ele>455.36</ele>
        <time>2019-03-21T14:24:45.000Z</time>
      </trkpt>
      <trkpt lat="44.86751" lon="5.06486">
        <ele>456.62</ele>
        <time>2019-03-21T14:24:57.000Z</time>
      </trkpt>
      <trkpt lat="44.8675" lon="5.065">
        <ele>457.98</ele>
        <time>2019-03-21T14:25:18.000Z</time>
      </trkpt>
      <trkpt lat="44.86747" lon="5.06513">
        <ele>459.49</ele>
        <time>2019-03-21T14:25:39.000Z</time>
      </trkpt>
      <trkpt lat="44.86744" lon="5.06525">
        <ele>461.09</ele>
        <time>2019-03-21T14:25:52.000Z</time>
      </trkpt>
      <trkpt lat="44.86742" lon="5.06538">
        <ele>462.83</ele>
        <time>2019-03-21T14:26:17.000Z</time>
      </trkpt>
      <trkpt lat="44.86737" lon="5.06549">
        <ele>464.41</ele>
        <time>2019-03-21T14:26:32.000Z</time>
      </trkpt>
      <trkpt lat="44.86732" lon="5.06561">
        <ele>465.92</ele>
        <time>2019-03-21T14:26:50.000Z</time>
      </trkpt>
      <trkpt lat="44.86728" lon="5.06573">
        <ele>467.29</ele>
        <time>2019-03-21T14:27:04.000Z</time>
      </trkpt>
      <trkpt lat="44.86725" lon="5.06586">
        <ele>468.7</ele>
        <time>2019-03-21T14:27:22.000Z</time>
      </trkpt>
      <trkpt lat="44.86721" lon="5.06598">
        <ele>469.86</ele>
        <time>2019-03-21T14:34:57.000Z</time>
      </trkpt>
      <trkpt lat="44.86719" lon="5.06613">
        <ele>471.34</ele>
        <time>2019-03-21T14:35:13.000Z</time>
      </trkpt>
      <trkpt lat="44.86718" lon="5.06628">
        <ele>472.9</ele>
        <time>2019-03-21T14:35:29.000Z</time>
      </trkpt>
      <trkpt lat="44.86714" lon="5.06641">
        <ele>473.47</ele>
        <time>2019-03-21T14:35:41.000Z</time>
      </trkpt>
      <trkpt lat="44.86712" lon="5.06654">
        <ele>473.99</ele>
        <time>2019-03-21T14:35:52.000Z</time>
      </trkpt>
      <trkpt lat="44.8671" lon="5.06668">
        <ele>474.13</ele>
        <time>2019-03-21T14:36:02.000Z</time>
      </trkpt>
      <trkpt lat="44.86708" lon="5.0668">
        <ele>474.05</ele>
        <time>2019-03-21T14:36:12.000Z</time>
      </trkpt>
      <trkpt lat="44.86706" lon="5.06693">
        <ele>473.61</ele>
        <time>2019-03-21T14:36:25.000Z</time>
      </trkpt>
      <trkpt lat="44.86714" lon="5.06701">
        <ele>474.21</ele>
        <time>2019-03-21T14:36:36.000Z</time>
      </trkpt>
      <trkpt lat="44.86721" lon="5.0671">
        <ele>474.25</ele>
        <time>2019-03-21T14:36:48.000Z</time>
      </trkpt>
      <trkpt lat="44.86732" lon="5.06713">
        <ele>474.68</ele>
        <time>2019-03-21T14:36:58.000Z</time>
      </trkpt>
      <trkpt lat="44.86741" lon="5.06716">
        <ele>474.9</ele>
        <time>2019-03-21T14:37:08.000Z</time>
      </trkpt>
      <trkpt lat="44.86751" lon="5.06716">
        <ele>475.21</ele>
        <time>2019-03-21T14:37:19.000Z</time>
      </trkpt>
      <trkpt lat="44.8676" lon="5.06717">
        <ele>475.4</ele>
        <time>2019-03-21T14:37:30.000Z</time>
      </trkpt>
      <trkpt lat="44.86769" lon="5.06717">
        <ele>475.62</ele>
        <time>2019-03-21T14:37:41.000Z</time>
      </trkpt>
      <trkpt lat="44.8678" lon="5.0672">
        <ele>475.77</ele>
        <time>2019-03-21T14:37:58.000Z</time>
      </trkpt>
      <trkpt lat="44.8679" lon="5.06721">
        <ele>475.98</ele>
        <time>2019-03-21T14:38:08.000Z</time>
      </trkpt>
      <trkpt lat="44.86799" lon="5.06723">
        <ele>476.26</ele>
        <time>2019-03-21T14:38:19.000Z</time>
      </trkpt>
      <trkpt lat="44.86808" lon="5.06721">
        <ele>476.15</ele>
        <time>2019-03-21T14:38:30.000Z</time>
      </trkpt>
      <trkpt lat="44.86818" lon="5.06722">
        <ele>476.21</ele>
        <time>2019-03-21T14:38:41.000Z</time>
      </trkpt>
      <trkpt lat="44.86828" lon="5.06723">
        <ele>476.11</ele>
        <time>2019-03-21T14:38:55.000Z</time>
      </trkpt>
      <trkpt lat="44.86838" lon="5.06724">
        <ele>475.76</ele>
        <time>2019-03-21T14:39:05.000Z</time>
      </trkpt>
      <trkpt lat="44.86848" lon="5.06722">
        <ele>474.66</ele>
        <time>2019-03-21T14:39:16.000Z</time>
      </trkpt>
      <trkpt lat="44.86857" lon="5.06721">
        <ele>473.47</ele>
        <time>2019-03-21T14:39:26.000Z</time>
      </trkpt>
      <trkpt lat="44.86867" lon="5.06722">
        <ele>472.45</ele>
        <time>2019-03-21T14:39:40.000Z</time>
      </trkpt>
      <trkpt lat="44.86876" lon="5.06727">
        <ele>472.33</ele>
        <time>2019-03-21T14:39:51.000Z</time>
      </trkpt>
      <trkpt lat="44.86885" lon="5.06731">
        <ele>471.94</ele>
        <time>2019-03-21T14:40:02.000Z</time>
      </trkpt>
      <trkpt lat="44.86893" lon="5.06737">
        <ele>471.83</ele>
        <time>2019-03-21T14:40:12.000Z</time>
      </trkpt>
      <trkpt lat="44.86901" lon="5.06743">
        <ele>471.31</ele>
        <time>2019-03-21T14:40:23.000Z</time>
      </trkpt>
      <trkpt lat="44.86912" lon="5.06748">
        <ele>470.38</ele>
        <time>2019-03-21T14:40:33.000Z</time>
      </trkpt>
      <trkpt lat="44.86921" lon="5.06753">
        <ele>469.67</ele>
        <time>2019-03-21T14:40:43.000Z</time>
      </trkpt>
      <trkpt lat="44.8693" lon="5.06757">
        <ele>468.92</ele>
        <time>2019-03-21T14:40:54.000Z</time>
      </trkpt>
      <trkpt lat="44.86939" lon="5.06764">
        <ele>468.09</ele>
        <time>2019-03-21T14:41:05.000Z</time>
      </trkpt>
      <trkpt lat="44.86949" lon="5.06768">
        <ele>467.32</ele>
        <time>2019-03-21T14:41:15.000Z</time>
      </trkpt>
      <trkpt lat="44.86958" lon="5.06771">
        <ele>466.79</ele>
        <time>2019-03-21T14:41:25.000Z</time>
      </trkpt>
      <trkpt lat="44.86967" lon="5.06776">
        <ele>466.46</ele>
        <time>2019-03-21T14:41:36.000Z</time>
      </trkpt>
      <trkpt lat="44.86977" lon="5.06781">
        <ele>466.28</ele>
        <time>2019-03-21T14:41:49.000Z</time>
      </trkpt>
      <trkpt lat="44.86986" lon="5.06784">
        <ele>466.11</ele>
        <time>2019-03-21T14:42:00.000Z</time>
      </trkpt>
      <trkpt lat="44.86995" lon="5.06788">
        <ele>466.05</ele>
        <time>2019-03-21T14:42:11.000Z</time>
      </trkpt>
      <trkpt lat="44.87003" lon="5.06794">
        <ele>466.09</ele>
        <time>2019-03-21T14:42:22.000Z</time>
      </trkpt>
      <trkpt lat="44.87013" lon="5.06796">
        <ele>465.61</ele>
        <time>2019-03-21T14:42:33.000Z</time>
      </trkpt>
      <trkpt lat="44.87022" lon="5.068">
        <ele>465.19</ele>
        <time>2019-03-21T14:42:44.000Z</time>
      </trkpt>
      <trkpt lat="44.8703" lon="5.06806">
        <ele>464.75</ele>
        <time>2019-03-21T14:42:55.000Z</time>
      </trkpt>
      <trkpt lat="44.87038" lon="5.06812">
        <ele>464.03</ele>
        <time>2019-03-21T14:43:07.000Z</time>
      </trkpt>
      <trkpt lat="44.87047" lon="5.06814">
        <ele>463.08</ele>
        <time>2019-03-21T14:43:17.000Z</time>
      </trkpt>
      <trkpt lat="44.87055" lon="5.0682">
        <ele>462.27</ele>
        <time>2019-03-21T14:43:29.000Z</time>
      </trkpt>
      <trkpt lat="44.87064" lon="5.06825">
        <ele>461.39</ele>
        <time>2019-03-21T14:43:40.000Z</time>
      </trkpt>
      <trkpt lat="44.87073" lon="5.06832">
        <ele>460.62</ele>
        <time>2019-03-21T14:43:51.000Z</time>
      </trkpt>
      <trkpt lat="44.87081" lon="5.06839">
        <ele>460.06</ele>
        <time>2019-03-21T14:44:01.000Z</time>
      </trkpt>
      <trkpt lat="44.87088" lon="5.06847">
        <ele>459.76</ele>
        <time>2019-03-21T14:44:12.000Z</time>
      </trkpt>
      <trkpt lat="44.87097" lon="5.0685">
        <ele>459.61</ele>
        <time>2019-03-21T14:44:27.000Z</time>
      </trkpt>
      <trkpt lat="44.87106" lon="5.06855">
        <ele>459.57</ele>
        <time>2019-03-21T14:44:37.000Z</time>
      </trkpt>
      <trkpt lat="44.87115" lon="5.06857">
        <ele>459.58</ele>
        <time>2019-03-21T14:45:24.000Z</time>
      </trkpt>
      <trkpt lat="44.87125" lon="5.0686">
        <ele>459.63</ele>
        <time>2019-03-21T14:45:34.000Z</time>
      </trkpt>
      <trkpt lat="44.87134" lon="5.06867">
        <ele>459.74</ele>
        <time>2019-03-21T14:45:44.000Z</time>
      </trkpt>
      <trkpt lat="44.87142" lon="5.06874">
        <ele>459.89</ele>
        <time>2019-03-21T14:46:06.000Z</time>
      </trkpt>
      <trkpt lat="44.8715" lon="5.06878">
        <ele>460.16</ele>
        <time>2019-03-21T14:46:17.000Z</time>
      </trkpt>
      <trkpt lat="44.87159" lon="5.06885">
        <ele>460.66</ele>
        <time>2019-03-21T14:46:29.000Z</time>
      </trkpt>
      <trkpt lat="44.87168" lon="5.06887">
        <ele>461.37</ele>
        <time>2019-03-21T14:46:39.000Z</time>
      </trkpt>
      <trkpt lat="44.87177" lon="5.06892">
        <ele>462.5</ele>
        <time>2019-03-21T14:46:49.000Z</time>
      </trkpt>
      <trkpt lat="44.87185" lon="5.06899">
        <ele>464.19</ele>
        <time>2019-03-21T14:47:00.000Z</time>
      </trkpt>
      <trkpt lat="44.87187" lon="5.06912">
        <ele>465.21</ele>
        <time>2019-03-21T14:47:16.000Z</time>
      </trkpt>
      <trkpt lat="44.87193" lon="5.06923">
        <ele>466.48</ele>
        <time>2019-03-21T14:47:30.000Z</time>
      </trkpt>
      <trkpt lat="44.872" lon="5.06931">
        <ele>468.29</ele>
        <time>2019-03-21T14:47:45.000Z</time>
      </trkpt>
      <trkpt lat="44.87208" lon="5.06935">
        <ele>470.86</ele>
        <time>2019-03-21T14:48:01.000Z</time>
      </trkpt>
      <trkpt lat="44.87217" lon="5.06941">
        <ele>473.49</ele>
        <time>2019-03-21T14:48:22.000Z</time>
      </trkpt>
      <trkpt lat="44.87224" lon="5.06951">
        <ele>475.38</ele>
        <time>2019-03-21T14:48:40.000Z</time>
      </trkpt>
      <trkpt lat="44.87233" lon="5.06955">
        <ele>478.22</ele>
        <time>2019-03-21T14:49:10.000Z</time>
      </trkpt>
      <trkpt lat="44.87242" lon="5.0696">
        <ele>480.92</ele>
        <time>2019-03-21T14:49:27.000Z</time>
      </trkpt>
      <trkpt lat="44.87251" lon="5.06962">
        <ele>483.46</ele>
        <time>2019-03-21T14:49:51.000Z</time>
      </trkpt>
      <trkpt lat="44.87259" lon="5.06971">
        <ele>485.34</ele>
        <time>2019-03-21T14:50:13.000Z</time>
      </trkpt>
      <trkpt lat="44.87267" lon="5.06977">
        <ele>487.46</ele>
        <time>2019-03-21T14:50:32.000Z</time>
      </trkpt>
      <trkpt lat="44.87274" lon="5.06985">
        <ele>489.32</ele>
        <time>2019-03-21T14:51:00.000Z</time>
      </trkpt>
      <trkpt lat="44.87279" lon="5.06995">
        <ele>490.38</ele>
        <time>2019-03-21T14:51:19.000Z</time>
      </trkpt>
      <trkpt lat="44.87288" lon="5.07001">
        <ele>492.81</ele>
        <time>2019-03-21T14:51:36.000Z</time>
      </trkpt>
      <trkpt lat="44.87296" lon="5.07007">
        <ele>494.92</ele>
        <time>2019-03-21T14:51:47.000Z</time>
      </trkpt>
      <trkpt lat="44.87303" lon="5.07015">
        <ele>496.57</ele>
        <time>2019-03-21T14:52:02.000Z</time>
      </trkpt>
      <trkpt lat="44.8731" lon="5.07025">
        <ele>496.94</ele>
        <time>2019-03-21T14:52:17.000Z</time>
      </trkpt>
      <trkpt lat="44.87318" lon="5.07028">
        <ele>499.08</ele>
        <time>2019-03-21T14:52:42.000Z</time>
      </trkpt>
      <trkpt lat="44.87328" lon="5.07028">
        <ele>501.96</ele>
        <time>2019-03-21T14:52:57.000Z</time>
      </trkpt>
      <trkpt lat="44.87337" lon="5.0703">
        <ele>503.78</ele>
        <time>2019-03-21T14:53:23.000Z</time>
      </trkpt>
      <trkpt lat="44.87347" lon="5.07031">
        <ele>506.05</ele>
        <time>2019-03-21T14:53:42.000Z</time>
      </trkpt>
      <trkpt lat="44.87356" lon="5.07034">
        <ele>507.58</ele>
        <time>2019-03-21T14:53:59.000Z</time>
      </trkpt>
      <trkpt lat="44.87366" lon="5.07034">
        <ele>509.35</ele>
        <time>2019-03-21T14:54:18.000Z</time>
      </trkpt>
      <trkpt lat="44.87375" lon="5.07032">
        <ele>511.4</ele>
        <time>2019-03-21T14:54:34.000Z</time>
      </trkpt>
      <trkpt lat="44.87385" lon="5.0703">
        <ele>513.23</ele>
        <time>2019-03-21T14:54:51.000Z</time>
      </trkpt>
      <trkpt lat="44.87395" lon="5.07031">
        <ele>514.7</ele>
        <time>2019-03-21T14:55:13.000Z</time>
      </trkpt>
      <trkpt lat="44.87404" lon="5.07029">
        <ele>516.14</ele>
        <time>2019-03-21T14:55:31.000Z</time>
      </trkpt>
      <trkpt lat="44.87413" lon="5.07031">
        <ele>517.21</ele>
        <time>2019-03-21T14:55:48.000Z</time>
      </trkpt>
      <trkpt lat="44.87423" lon="5.07029">
        <ele>518.44</ele>
        <time>2019-03-21T14:56:09.000Z</time>
      </trkpt>
      <trkpt lat="44.87432" lon="5.07028">
        <ele>519.63</ele>
        <time>2019-03-21T14:56:22.000Z</time>
      </trkpt>
      <trkpt lat="44.87442" lon="5.0703">
        <ele>520.67</ele>
        <time>2019-03-21T14:56:40.000Z</time>
      </trkpt>
      <trkpt lat="44.87451" lon="5.07029">
        <ele>521.66</ele>
        <time>2019-03-21T14:56:53.000Z</time>
      </trkpt>
      <trkpt lat="44.8746" lon="5.0703">
        <ele>522.5</ele>
        <time>2019-03-21T14:57:13.000Z</time>
      </trkpt>
      <trkpt lat="44.87469" lon="5.0703">
        <ele>523.15</ele>
        <time>2019-03-21T14:57:28.000Z</time>
      </trkpt>
      <trkpt lat="44.87478" lon="5.07032">
        <ele>523.68</ele>
        <time>2019-03-21T14:57:54.000Z</time>
      </trkpt>
      <trkpt lat="44.87488" lon="5.0703">
        <ele>523.64</ele>
        <time>2019-03-21T14:58:08.000Z</time>
      </trkpt>
      <trkpt lat="44.87497" lon="5.07032">
        <ele>523.61</ele>
        <time>2019-03-21T14:59:10.000Z</time>
      </trkpt>
      <trkpt lat="44.87506" lon="5.07036">
        <ele>523.71</ele>
        <time>2019-03-21T14:59:27.000Z</time>
      </trkpt>
      <trkpt lat="44.87513" lon="5.07045">
        <ele>524.31</ele>
        <time>2019-03-21T14:59:44.000Z</time>
      </trkpt>
      <trkpt lat="44.87521" lon="5.07053">
        <ele>524.91</ele>
        <time>2019-03-21T14:59:57.000Z</time>
      </trkpt>
      <trkpt lat="44.87529" lon="5.0706">
        <ele>525.46</ele>
        <time>2019-03-21T15:00:10.000Z</time>
      </trkpt>
      <trkpt lat="44.87538" lon="5.07064">
        <ele>525.62</ele>
        <time>2019-03-21T15:00:22.000Z</time>
      </trkpt>
      <trkpt lat="44.87545" lon="5.07072">
        <ele>526.27</ele>
        <time>2019-03-21T15:00:42.000Z</time>
      </trkpt>
      <trkpt lat="44.87552" lon="5.07082">
        <ele>526.79</ele>
        <time>2019-03-21T15:00:53.000Z</time>
      </trkpt>
      <trkpt lat="44.87559" lon="5.07089">
        <ele>526.63</ele>
        <time>2019-03-21T15:01:03.000Z</time>
      </trkpt>
      <trkpt lat="44.87568" lon="5.07094">
        <ele>526.13</ele>
        <time>2019-03-21T15:01:13.000Z</time>
      </trkpt>
      <trkpt lat="44.87577" lon="5.07097">
        <ele>525.38</ele>
        <time>2019-03-21T15:01:25.000Z</time>
      </trkpt>
      <trkpt lat="44.87585" lon="5.07103">
        <ele>524.36</ele>
        <time>2019-03-21T15:01:36.000Z</time>
      </trkpt>
      <trkpt lat="44.87593" lon="5.0711">
        <ele>523.13</ele>
        <time>2019-03-21T15:01:47.000Z</time>
      </trkpt>
      <trkpt lat="44.87602" lon="5.07116">
        <ele>521.78</ele>
        <time>2019-03-21T15:01:57.000Z</time>
      </trkpt>
      <trkpt lat="44.87612" lon="5.07118">
        <ele>520.36</ele>
        <time>2019-03-21T15:02:36.000Z</time>
      </trkpt>
      <trkpt lat="44.8762" lon="5.07127">
        <ele>519.6</ele>
        <time>2019-03-21T15:03:10.000Z</time>
      </trkpt>
      <trkpt lat="44.87627" lon="5.07136">
        <ele>519.26</ele>
        <time>2019-03-21T15:03:49.000Z</time>
      </trkpt>
      <trkpt lat="44.87619" lon="5.07143">
        <ele>519.57</ele>
        <time>2019-03-21T15:04:05.000Z</time>
      </trkpt>
      <trkpt lat="44.87628" lon="5.07141">
        <ele>519.29</ele>
        <time>2019-03-21T15:05:50.000Z</time>
      </trkpt>
      <trkpt lat="44.87636" lon="5.07146">
        <ele>518.93</ele>
        <time>2019-03-21T15:07:39.000Z</time>
      </trkpt>
      <trkpt lat="44.87638" lon="5.07159">
        <ele>518.45</ele>
        <time>2019-03-21T15:08:09.000Z</time>
      </trkpt>
      <trkpt lat="44.87637" lon="5.07146">
        <ele>518.92</ele>
        <time>2019-03-21T15:14:24.000Z</time>
      </trkpt>
      <trkpt lat="44.87633" lon="5.07134">
        <ele>518.56</ele>
        <time>2019-03-21T15:14:42.000Z</time>
      </trkpt>
      <trkpt lat="44.87624" lon="5.07132">
        <ele>519.36</ele>
        <time>2019-03-21T15:15:37.000Z</time>
      </trkpt>
      <trkpt lat="44.87618" lon="5.07121">
        <ele>519.64</ele>
        <time>2019-03-21T15:16:39.000Z</time>
      </trkpt>
      <trkpt lat="44.87609" lon="5.07117">
        <ele>520.74</ele>
        <time>2019-03-21T15:16:59.000Z</time>
      </trkpt>
      <trkpt lat="44.87601" lon="5.07112">
        <ele>522</ele>
        <time>2019-03-21T15:17:11.000Z</time>
      </trkpt>
      <trkpt lat="44.87593" lon="5.07104">
        <ele>523.25</ele>
        <time>2019-03-21T15:17:26.000Z</time>
      </trkpt>
      <trkpt lat="44.87585" lon="5.07099">
        <ele>524.48</ele>
        <time>2019-03-21T15:17:36.000Z</time>
      </trkpt>
      <trkpt lat="44.87576" lon="5.07093">
        <ele>525.42</ele>
        <time>2019-03-21T15:17:47.000Z</time>
      </trkpt>
      <trkpt lat="44.87566" lon="5.07091">
        <ele>526.27</ele>
        <time>2019-03-21T15:18:05.000Z</time>
      </trkpt>
      <trkpt lat="44.87559" lon="5.07082">
        <ele>526.46</ele>
        <time>2019-03-21T15:18:18.000Z</time>
      </trkpt>
      <trkpt lat="44.87552" lon="5.07074">
        <ele>526.18</ele>
        <time>2019-03-21T15:18:31.000Z</time>
      </trkpt>
      <trkpt lat="44.87545" lon="5.07065">
        <ele>525.26</ele>
        <time>2019-03-21T15:18:42.000Z</time>
      </trkpt>
      <trkpt lat="44.87536" lon="5.07059">
        <ele>524.93</ele>
        <time>2019-03-21T15:18:52.000Z</time>
      </trkpt>
      <trkpt lat="44.87528" lon="5.07053">
        <ele>524.51</ele>
        <time>2019-03-21T15:19:03.000Z</time>
      </trkpt>
      <trkpt lat="44.87521" lon="5.07044">
        <ele>523.6</ele>
        <time>2019-03-21T15:19:13.000Z</time>
      </trkpt>
      <trkpt lat="44.87513" lon="5.07038">
        <ele>523.47</ele>
        <time>2019-03-21T15:19:23.000Z</time>
      </trkpt>
      <trkpt lat="44.87505" lon="5.07031">
        <ele>523.04</ele>
        <time>2019-03-21T15:19:34.000Z</time>
      </trkpt>
      <trkpt lat="44.87496" lon="5.07027">
        <ele>523.14</ele>
        <time>2019-03-21T15:19:44.000Z</time>
      </trkpt>
      <trkpt lat="44.87487" lon="5.0703">
        <ele>523.67</ele>
        <time>2019-03-21T15:19:54.000Z</time>
      </trkpt>
      <trkpt lat="44.87478" lon="5.07031">
        <ele>523.62</ele>
        <time>2019-03-21T15:20:06.000Z</time>
      </trkpt>
      <trkpt lat="44.87468" lon="5.07029">
        <ele>523.06</ele>
        <time>2019-03-21T15:20:19.000Z</time>
      </trkpt>
      <trkpt lat="44.87458" lon="5.0703">
        <ele>522.29</ele>
        <time>2019-03-21T15:20:35.000Z</time>
      </trkpt>
      <trkpt lat="44.87446" lon="5.07031">
        <ele>521.15</ele>
        <time>2019-03-21T15:20:52.000Z</time>
      </trkpt>
      <trkpt lat="44.87437" lon="5.07033">
        <ele>519.98</ele>
        <time>2019-03-21T15:21:13.000Z</time>
      </trkpt>
      <trkpt lat="44.87427" lon="5.07034">
        <ele>518.65</ele>
        <time>2019-03-21T15:21:27.000Z</time>
      </trkpt>
      <trkpt lat="44.87418" lon="5.07032">
        <ele>517.71</ele>
        <time>2019-03-21T15:22:07.000Z</time>
      </trkpt>
      <trkpt lat="44.87407" lon="5.07032">
        <ele>516.3</ele>
        <time>2019-03-21T15:22:17.000Z</time>
      </trkpt>
      <trkpt lat="44.87397" lon="5.07036">
        <ele>514.32</ele>
        <time>2019-03-21T15:22:27.000Z</time>
      </trkpt>
      <trkpt lat="44.87387" lon="5.07035">
        <ele>512.97</ele>
        <time>2019-03-21T15:22:44.000Z</time>
      </trkpt>
      <trkpt lat="44.87378" lon="5.07038">
        <ele>511.04</ele>
        <time>2019-03-21T15:22:58.000Z</time>
      </trkpt>
      <trkpt lat="44.87369" lon="5.07042">
        <ele>508.64</ele>
        <time>2019-03-21T15:23:18.000Z</time>
      </trkpt>
      <trkpt lat="44.8736" lon="5.07038">
        <ele>507.5</ele>
        <time>2019-03-21T15:23:46.000Z</time>
      </trkpt>
      <trkpt lat="44.87351" lon="5.07038">
        <ele>505.43</ele>
        <time>2019-03-21T15:24:02.000Z</time>
      </trkpt>
      <trkpt lat="44.87341" lon="5.07036">
        <ele>503.85</ele>
        <time>2019-03-21T15:24:16.000Z</time>
      </trkpt>
      <trkpt lat="44.87332" lon="5.07034">
        <ele>501.83</ele>
        <time>2019-03-21T15:24:31.000Z</time>
      </trkpt>
      <trkpt lat="44.87323" lon="5.07035">
        <ele>498.93</ele>
        <time>2019-03-21T15:24:49.000Z</time>
      </trkpt>
      <trkpt lat="44.87315" lon="5.07028">
        <ele>497.92</ele>
        <time>2019-03-21T15:25:21.000Z</time>
      </trkpt>
      <trkpt lat="44.87307" lon="5.07021">
        <ele>496.7</ele>
        <time>2019-03-21T15:25:39.000Z</time>
      </trkpt>
      <trkpt lat="44.87299" lon="5.07013">
        <ele>495.49</ele>
        <time>2019-03-21T15:25:55.000Z</time>
      </trkpt>
      <trkpt lat="44.87291" lon="5.07007">
        <ele>493.25</ele>
        <time>2019-03-21T15:26:07.000Z</time>
      </trkpt>
      <trkpt lat="44.87285" lon="5.06997">
        <ele>492.13</ele>
        <time>2019-03-21T15:26:32.000Z</time>
      </trkpt>
      <trkpt lat="44.87276" lon="5.06991">
        <ele>489.71</ele>
        <time>2019-03-21T15:26:42.000Z</time>
      </trkpt>
      <trkpt lat="44.8727" lon="5.06981">
        <ele>488.13</ele>
        <time>2019-03-21T15:26:55.000Z</time>
      </trkpt>
      <trkpt lat="44.87262" lon="5.06975">
        <ele>485.89</ele>
        <time>2019-03-21T15:27:08.000Z</time>
      </trkpt>
      <trkpt lat="44.87253" lon="5.06968">
        <ele>483.85</ele>
        <time>2019-03-21T15:27:22.000Z</time>
      </trkpt>
      <trkpt lat="44.87245" lon="5.06964">
        <ele>481.6</ele>
        <time>2019-03-21T15:27:34.000Z</time>
      </trkpt>
      <trkpt lat="44.87238" lon="5.06956">
        <ele>479.73</ele>
        <time>2019-03-21T15:27:50.000Z</time>
      </trkpt>
      <trkpt lat="44.8723" lon="5.06951">
        <ele>477.38</ele>
        <time>2019-03-21T15:28:03.000Z</time>
      </trkpt>
      <trkpt lat="44.87222" lon="5.06944">
        <ele>475.01</ele>
        <time>2019-03-21T15:28:28.000Z</time>
      </trkpt>
      <trkpt lat="44.87212" lon="5.06941">
        <ele>471.92</ele>
        <time>2019-03-21T15:28:39.000Z</time>
      </trkpt>
      <trkpt lat="44.87204" lon="5.06935">
        <ele>469.5</ele>
        <time>2019-03-21T15:28:53.000Z</time>
      </trkpt>
      <trkpt lat="44.87197" lon="5.06926">
        <ele>467.62</ele>
        <time>2019-03-21T15:29:05.000Z</time>
      </trkpt>
      <trkpt lat="44.8719" lon="5.06917">
        <ele>466.01</ele>
        <time>2019-03-21T15:29:15.000Z</time>
      </trkpt>
      <trkpt lat="44.87191" lon="5.06903">
        <ele>465.74</ele>
        <time>2019-03-21T15:29:25.000Z</time>
      </trkpt>
      <trkpt lat="44.87186" lon="5.06893">
        <ele>463.8</ele>
        <time>2019-03-21T15:29:55.000Z</time>
      </trkpt>
      <trkpt lat="44.87176" lon="5.06888">
        <ele>462.26</ele>
        <time>2019-03-21T15:30:48.000Z</time>
      </trkpt>
      <trkpt lat="44.87167" lon="5.06887">
        <ele>461.31</ele>
        <time>2019-03-21T15:30:58.000Z</time>
      </trkpt>
      <trkpt lat="44.87159" lon="5.06882">
        <ele>460.57</ele>
        <time>2019-03-21T15:31:11.000Z</time>
      </trkpt>
      <trkpt lat="44.87151" lon="5.06875">
        <ele>460.13</ele>
        <time>2019-03-21T15:31:22.000Z</time>
      </trkpt>
      <trkpt lat="44.87144" lon="5.06867">
        <ele>459.86</ele>
        <time>2019-03-21T15:31:33.000Z</time>
      </trkpt>
      <trkpt lat="44.87134" lon="5.06861">
        <ele>459.69</ele>
        <time>2019-03-21T15:31:43.000Z</time>
      </trkpt>
      <trkpt lat="44.87125" lon="5.06859">
        <ele>459.62</ele>
        <time>2019-03-21T15:31:53.000Z</time>
      </trkpt>
      <trkpt lat="44.87116" lon="5.06855">
        <ele>459.57</ele>
        <time>2019-03-21T15:32:04.000Z</time>
      </trkpt>
      <trkpt lat="44.87107" lon="5.06852">
        <ele>459.56</ele>
        <time>2019-03-21T15:32:30.000Z</time>
      </trkpt>
      <trkpt lat="44.87098" lon="5.06846">
        <ele>459.59</ele>
        <time>2019-03-21T15:32:40.000Z</time>
      </trkpt>
      <trkpt lat="44.87089" lon="5.06847">
        <ele>459.75</ele>
        <time>2019-03-21T15:33:08.000Z</time>
      </trkpt>
      <trkpt lat="44.87093" lon="5.06858">
        <ele>459.61</ele>
        <time>2019-03-21T15:33:20.000Z</time>
      </trkpt>
      <trkpt lat="44.87101" lon="5.06868">
        <ele>459.52</ele>
        <time>2019-03-21T15:33:30.000Z</time>
      </trkpt>
      <trkpt lat="44.87108" lon="5.06877">
        <ele>459.43</ele>
        <time>2019-03-21T15:33:40.000Z</time>
      </trkpt>
      <trkpt lat="44.87112" lon="5.06889">
        <ele>459.15</ele>
        <time>2019-03-21T15:33:51.000Z</time>
      </trkpt>
      <trkpt lat="44.87116" lon="5.06901">
        <ele>458.55</ele>
        <time>2019-03-21T15:34:03.000Z</time>
      </trkpt>
      <trkpt lat="44.87118" lon="5.06913">
        <ele>457.55</ele>
        <time>2019-03-21T15:34:24.000Z</time>
      </trkpt>
      <trkpt lat="44.87124" lon="5.06924">
        <ele>456.52</ele>
        <time>2019-03-21T15:34:39.000Z</time>
      </trkpt>
      <trkpt lat="44.87131" lon="5.06932">
        <ele>455.68</ele>
        <time>2019-03-21T15:34:53.000Z</time>
      </trkpt>
      <trkpt lat="44.87139" lon="5.06939">
        <ele>455.12</ele>
        <time>2019-03-21T15:35:09.000Z</time>
      </trkpt>
      <trkpt lat="44.87144" lon="5.06951">
        <ele>453.52</ele>
        <time>2019-03-21T15:35:22.000Z</time>
      </trkpt>
      <trkpt lat="44.87149" lon="5.06963">
        <ele>451.94</ele>
        <time>2019-03-21T15:38:38.000Z</time>
      </trkpt>
      <trkpt lat="44.87154" lon="5.06975">
        <ele>450.63</ele>
        <time>2019-03-21T15:39:33.000Z</time>
      </trkpt>
      <trkpt lat="44.87157" lon="5.06988">
        <ele>448.65</ele>
        <time>2019-03-21T15:39:50.000Z</time>
      </trkpt>
      <trkpt lat="44.87161" lon="5.06999">
        <ele>447.69</ele>
        <time>2019-03-21T15:40:36.000Z</time>
      </trkpt>
      <trkpt lat="44.87164" lon="5.07013">
        <ele>445.79</ele>
        <time>2019-03-21T15:40:57.000Z</time>
      </trkpt>
      <trkpt lat="44.87164" lon="5.07027">
        <ele>443.16</ele>
        <time>2019-03-21T15:41:18.000Z</time>
      </trkpt>
      <trkpt lat="44.87168" lon="5.07039">
        <ele>441.68</ele>
        <time>2019-03-21T15:41:32.000Z</time>
      </trkpt>
      <trkpt lat="44.87173" lon="5.0705">
        <ele>440.91</ele>
        <time>2019-03-21T15:41:44.000Z</time>
      </trkpt>
      <trkpt lat="44.87175" lon="5.07064">
        <ele>438.65</ele>
        <time>2019-03-21T15:42:00.000Z</time>
      </trkpt>
      <trkpt lat="44.87176" lon="5.07077">
        <ele>436.2</ele>
        <time>2019-03-21T15:42:15.000Z</time>
      </trkpt>
      <trkpt lat="44.87176" lon="5.0709">
        <ele>433.4</ele>
        <time>2019-03-21T15:42:28.000Z</time>
      </trkpt>
      <trkpt lat="44.87177" lon="5.07102">
        <ele>431.11</ele>
        <time>2019-03-21T15:42:43.000Z</time>
      </trkpt>
      <trkpt lat="44.87178" lon="5.07115">
        <ele>428.84</ele>
        <time>2019-03-21T15:42:57.000Z</time>
      </trkpt>
      <trkpt lat="44.8718" lon="5.07128">
        <ele>426.9</ele>
        <time>2019-03-21T15:43:09.000Z</time>
      </trkpt>
      <trkpt lat="44.87186" lon="5.07138">
        <ele>426.32</ele>
        <time>2019-03-21T15:43:23.000Z</time>
      </trkpt>
      <trkpt lat="44.8719" lon="5.0715">
        <ele>424.98</ele>
        <time>2019-03-21T15:43:38.000Z</time>
      </trkpt>
      <trkpt lat="44.8719" lon="5.07164">
        <ele>422.06</ele>
        <time>2019-03-21T15:43:59.000Z</time>
      </trkpt>
      <trkpt lat="44.87191" lon="5.07177">
        <ele>418.99</ele>
        <time>2019-03-21T15:44:40.000Z</time>
      </trkpt>
      <trkpt lat="44.87196" lon="5.07187">
        <ele>417.87</ele>
        <time>2019-03-21T15:45:22.000Z</time>
      </trkpt>
      <trkpt lat="44.87198" lon="5.072">
        <ele>414.86</ele>
        <time>2019-03-21T15:45:45.000Z</time>
      </trkpt>
      <trkpt lat="44.87203" lon="5.07213">
        <ele>412.73</ele>
        <time>2019-03-21T15:46:01.000Z</time>
      </trkpt>
      <trkpt lat="44.87209" lon="5.07224">
        <ele>411.43</ele>
        <time>2019-03-21T15:46:25.000Z</time>
      </trkpt>
      <trkpt lat="44.87217" lon="5.07231">
        <ele>412.32</ele>
        <time>2019-03-21T15:47:34.000Z</time>
      </trkpt>
      <trkpt lat="44.87222" lon="5.07243">
        <ele>410.82</ele>
        <time>2019-03-21T15:47:47.000Z</time>
      </trkpt>
      <trkpt lat="44.87227" lon="5.07254">
        <ele>409.3</ele>
        <time>2019-03-21T15:47:57.000Z</time>
      </trkpt>
      <trkpt lat="44.87231" lon="5.07266">
        <ele>407.29</ele>
        <time>2019-03-21T15:48:07.000Z</time>
      </trkpt>
      <trkpt lat="44.87236" lon="5.07279">
        <ele>405.03</ele>
        <time>2019-03-21T15:48:17.000Z</time>
      </trkpt>
      <trkpt lat="44.87241" lon="5.0729">
        <ele>403.24</ele>
        <time>2019-03-21T15:48:27.000Z</time>
      </trkpt>
      <trkpt lat="44.87247" lon="5.07301">
        <ele>401.53</ele>
        <time>2019-03-21T15:48:37.000Z</time>
      </trkpt>
      <trkpt lat="44.87255" lon="5.07309">
        <ele>401.2</ele>
        <time>2019-03-21T15:48:48.000Z</time>
      </trkpt>
      <trkpt lat="44.87261" lon="5.07319">
        <ele>400.06</ele>
        <time>2019-03-21T15:49:00.000Z</time>
      </trkpt>
      <trkpt lat="44.87266" lon="5.07329">
        <ele>398.71</ele>
        <time>2019-03-21T15:49:21.000Z</time>
      </trkpt>
      <trkpt lat="44.87272" lon="5.0734">
        <ele>397.82</ele>
        <time>2019-03-21T15:49:34.000Z</time>
      </trkpt>
      <trkpt lat="44.87277" lon="5.07351">
        <ele>396.5</ele>
        <time>2019-03-21T15:49:44.000Z</time>
      </trkpt>
      <trkpt lat="44.87281" lon="5.07363">
        <ele>394.57</ele>
        <time>2019-03-21T15:49:54.000Z</time>
      </trkpt>
      <trkpt lat="44.87286" lon="5.07373">
        <ele>393.24</ele>
        <time>2019-03-21T15:50:04.000Z</time>
      </trkpt>
      <trkpt lat="44.87292" lon="5.07384">
        <ele>391.9</ele>
        <time>2019-03-21T15:50:16.000Z</time>
      </trkpt>
      <trkpt lat="44.87294" lon="5.07398">
        <ele>388.79</ele>
        <time>2019-03-21T15:50:26.000Z</time>
      </trkpt>
      <trkpt lat="44.87299" lon="5.0741">
        <ele>386.64</ele>
        <time>2019-03-21T15:50:38.000Z</time>
      </trkpt>
      <trkpt lat="44.87303" lon="5.07422">
        <ele>384.29</ele>
        <time>2019-03-21T15:50:54.000Z</time>
      </trkpt>
      <trkpt lat="44.87306" lon="5.07434">
        <ele>381.62</ele>
        <time>2019-03-21T15:51:06.000Z</time>
      </trkpt>
      <trkpt lat="44.87314" lon="5.07441">
        <ele>380.8</ele>
        <time>2019-03-21T15:51:21.000Z</time>
      </trkpt>
      <trkpt lat="44.87323" lon="5.07442">
        <ele>381.46</ele>
        <time>2019-03-21T15:51:35.000Z</time>
      </trkpt>
      <trkpt lat="44.8733" lon="5.07452">
        <ele>379.1</ele>
        <time>2019-03-21T15:51:46.000Z</time>
      </trkpt>
      <trkpt lat="44.87335" lon="5.07464">
        <ele>376.29</ele>
        <time>2019-03-21T15:52:04.000Z</time>
      </trkpt>
      <trkpt lat="44.87332" lon="5.07476">
        <ele>373.17</ele>
        <time>2019-03-21T15:52:21.000Z</time>
      </trkpt>
      <trkpt lat="44.87338" lon="5.07485">
        <ele>371.03</ele>
        <time>2019-03-21T15:53:04.000Z</time>
      </trkpt>
      <trkpt lat="44.87341" lon="5.07497">
        <ele>368.38</ele>
        <time>2019-03-21T15:53:16.000Z</time>
      </trkpt>
      <trkpt lat="44.87343" lon="5.0751">
        <ele>365.96</ele>
        <time>2019-03-21T15:53:40.000Z</time>
      </trkpt>
      <trkpt lat="44.87345" lon="5.07523">
        <ele>363.83</ele>
        <time>2019-03-21T15:54:29.000Z</time>
      </trkpt>
      <trkpt lat="44.87349" lon="5.07535">
        <ele>362.12</ele>
        <time>2019-03-21T15:54:39.000Z</time>
      </trkpt>
      <trkpt lat="44.87352" lon="5.07548">
        <ele>360.6</ele>
        <time>2019-03-21T15:54:51.000Z</time>
      </trkpt>
      <trkpt lat="44.87355" lon="5.07561">
        <ele>359.28</ele>
        <time>2019-03-21T15:55:04.000Z</time>
      </trkpt>
      <trkpt lat="44.87356" lon="5.07575">
        <ele>358.24</ele>
        <time>2019-03-21T15:55:14.000Z</time>
      </trkpt>
      <trkpt lat="44.87357" lon="5.07589">
        <ele>357.49</ele>
        <time>2019-03-21T15:55:27.000Z</time>
      </trkpt>
      <trkpt lat="44.87357" lon="5.07601">
        <ele>357.11</ele>
        <time>2019-03-21T15:55:37.000Z</time>
      </trkpt>
      <trkpt lat="44.8736" lon="5.07614">
        <ele>356.92</ele>
        <time>2019-03-21T15:56:23.000Z</time>
      </trkpt>
      <trkpt lat="44.87369" lon="5.07618">
        <ele>356.41</ele>
        <time>2019-03-21T15:56:55.000Z</time>
      </trkpt>
      <trkpt lat="44.87373" lon="5.0763">
        <ele>356.44</ele>
        <time>2019-03-21T15:57:05.000Z</time>
      </trkpt>
      <trkpt lat="44.87371" lon="5.07642">
        <ele>356.95</ele>
        <time>2019-03-21T15:58:16.000Z</time>
      </trkpt>
      <trkpt lat="44.87365" lon="5.07654">
        <ele>357.58</ele>
        <time>2019-03-21T15:58:26.000Z</time>
      </trkpt>
      <trkpt lat="44.87359" lon="5.07664">
        <ele>358.05</ele>
        <time>2019-03-21T15:58:38.000Z</time>
      </trkpt>
      <trkpt lat="44.87354" lon="5.07676">
        <ele>358.41</ele>
        <time>2019-03-21T15:58:50.000Z</time>
      </trkpt>
      <trkpt lat="44.8735" lon="5.07687">
        <ele>358.79</ele>
        <time>2019-03-21T15:59:01.000Z</time>
      </trkpt>
      <trkpt lat="44.87344" lon="5.07697">
        <ele>359.21</ele>
        <time>2019-03-21T15:59:13.000Z</time>
      </trkpt>
      <trkpt lat="44.87336" lon="5.07703">
        <ele>359.66</ele>
        <time>2019-03-21T15:59:26.000Z</time>
      </trkpt>
      <trkpt lat="44.87336" lon="5.07718">
        <ele>360.04</ele>
        <time>2019-03-21T15:59:48.000Z</time>
      </trkpt>
      <trkpt lat="44.87334" lon="5.0773">
        <ele>360.47</ele>
        <time>2019-03-21T15:59:59.000Z</time>
      </trkpt>
      <trkpt lat="44.8733" lon="5.07743">
        <ele>360.95</ele>
        <time>2019-03-21T16:00:10.000Z</time>
      </trkpt>
      <trkpt lat="44.8732" lon="5.07742">
        <ele>361.39</ele>
        <time>2019-03-21T16:00:25.000Z</time>
      </trkpt>
      <trkpt lat="44.87328" lon="5.07747">
        <ele>361.15</ele>
        <time>2019-03-21T16:00:45.000Z</time>
      </trkpt>
      <trkpt lat="44.87334" lon="5.07757">
        <ele>361.13</ele>
        <time>2019-03-21T16:00:56.000Z</time>
      </trkpt>
      <trkpt lat="44.87342" lon="5.07766">
        <ele>360.99</ele>
        <time>2019-03-21T16:01:08.000Z</time>
      </trkpt>
      <trkpt lat="44.87346" lon="5.07778">
        <ele>361.05</ele>
        <time>2019-03-21T16:01:18.000Z</time>
      </trkpt>
      <trkpt lat="44.87352" lon="5.07789">
        <ele>361.06</ele>
        <time>2019-03-21T16:01:49.000Z</time>
      </trkpt>
      <trkpt lat="44.87359" lon="5.07799">
        <ele>361.04</ele>
        <time>2019-03-21T16:02:03.000Z</time>
      </trkpt>
      <trkpt lat="44.87363" lon="5.07787">
        <ele>360.55</ele>
        <time>2019-03-21T16:02:31.000Z</time>
      </trkpt>
      <trkpt lat="44.87355" lon="5.07781">
        <ele>360.74</ele>
        <time>2019-03-21T16:02:57.000Z</time>
      </trkpt>
      <trkpt lat="44.87348" lon="5.07772">
        <ele>360.83</ele>
        <time>2019-03-21T16:03:18.000Z</time>
      </trkpt>
      <trkpt lat="44.8734" lon="5.07762">
        <ele>360.96</ele>
        <time>2019-03-21T16:03:28.000Z</time>
      </trkpt>
      <trkpt lat="44.87332" lon="5.07755">
        <ele>361.18</ele>
        <time>2019-03-21T16:03:38.000Z</time>
      </trkpt>
      <trkpt lat="44.8732" lon="5.0775">
        <ele>361.61</ele>
        <time>2019-03-21T16:03:48.000Z</time>
      </trkpt>
      <trkpt lat="44.8731" lon="5.07746">
        <ele>361.98</ele>
        <time>2019-03-21T16:04:02.000Z</time>
      </trkpt>
      <trkpt lat="44.87301" lon="5.07746">
        <ele>362.44</ele>
        <time>2019-03-21T16:04:12.000Z</time>
      </trkpt>
      <trkpt lat="44.87292" lon="5.0774">
        <ele>362.63</ele>
        <time>2019-03-21T16:04:22.000Z</time>
      </trkpt>
      <trkpt lat="44.87283" lon="5.07741">
        <ele>363.06</ele>
        <time>2019-03-21T16:04:33.000Z</time>
      </trkpt>
      <trkpt lat="44.87274" lon="5.0774">
        <ele>363.41</ele>
        <time>2019-03-21T16:04:43.000Z</time>
      </trkpt>
      <trkpt lat="44.87265" lon="5.07738">
        <ele>363.68</ele>
        <time>2019-03-21T16:04:57.000Z</time>
      </trkpt>
      <trkpt lat="44.87256" lon="5.07732">
        <ele>363.64</ele>
        <time>2019-03-21T16:05:14.000Z</time>
      </trkpt>
      <trkpt lat="44.87247" lon="5.07731">
        <ele>363.8</ele>
        <time>2019-03-21T16:05:24.000Z</time>
      </trkpt>
      <trkpt lat="44.87237" lon="5.0773">
        <ele>363.98</ele>
        <time>2019-03-21T16:05:34.000Z</time>
      </trkpt>
      <trkpt lat="44.87228" lon="5.07727">
        <ele>363.86</ele>
        <time>2019-03-21T16:05:46.000Z</time>
      </trkpt>
      <trkpt lat="44.87219" lon="5.07727">
        <ele>363.99</ele>
        <time>2019-03-21T16:05:56.000Z</time>
      </trkpt>
      <trkpt lat="44.8721" lon="5.07726">
        <ele>363.99</ele>
        <time>2019-03-21T16:06:06.000Z</time>
      </trkpt>
      <trkpt lat="44.872" lon="5.07724">
        <ele>363.89</ele>
        <time>2019-03-21T16:06:17.000Z</time>
      </trkpt>
      <trkpt lat="44.8719" lon="5.07723">
        <ele>363.81</ele>
        <time>2019-03-21T16:06:27.000Z</time>
      </trkpt>
      <trkpt lat="44.87181" lon="5.0772">
        <ele>363.64</ele>
        <time>2019-03-21T16:06:38.000Z</time>
      </trkpt>
      <trkpt lat="44.87172" lon="5.07721">
        <ele>363.82</ele>
        <time>2019-03-21T16:06:48.000Z</time>
      </trkpt>
      <trkpt lat="44.87163" lon="5.07721">
        <ele>364.11</ele>
        <time>2019-03-21T16:06:59.000Z</time>
      </trkpt>
      <trkpt lat="44.87158" lon="5.07721">
        <ele>364.18</ele>
        <time>2019-03-21T16:07:04.000Z</time>
      </trkpt>
    </trkseg>
  </trk>
</gpx>